Portada
METAR-TAF:

METAR-TAF

Aeroports :

Bartow, Florida, Estats Units d'Amèrica

latitud: 27-57N, longitud: 081-47W, altitud: 39 m

Observació

L'informe es va fer fa 20 minuts, a les 06:35 UTC
Vent 5 kt del Nord-Oest
Temperatura 26°C
Humitat 89%
Pressió 1014 hPa
Visibilitat: 16.1 km

METAR: KBOW 160635Z AUTO 31005KT 10SM 26/24 A2994 RMK AO2

Hora: 02:55 (06:55 UTC)


TAF: manca

Observacions i pronòstics meteorològics de més de 4000 aeroports (METAR i TAF).

Les estacions disponibles són els punts grocs i vermells al mapa.

Posi el ratolí al punt desitjat per veure el nom de l'estació.

Feu clic per veure les observacions i els pronòstics meteorològics.

Per canviar el mapa: feu clic els botons verds amb una creu de color negre per apropar; al botó verd amb un guió per allunyar la imatge; o en les fletxes verdes per a mapes adjacents.


METAR-TAF: